sensor_id;sensor_type;location;lat;lon;timestamp;P1;durP1;ratioP1;P2;durP2;ratioP2
32130;SDS011;18639;50.716;7.086;2023-11-21T00:00:48;3.05;;;1.60;;
32130;SDS011;18639;50.716;7.086;2023-11-21T00:03:13;4.70;;;1.83;;
32130;SDS011;18639;50.716;7.086;2023-11-21T00:05:40;3.83;;;1.65;;
32130;SDS011;18639;50.716;7.086;2023-11-21T00:08:06;4.45;;;1.88;;
32130;SDS011;18639;50.716;7.086;2023-11-21T00:10:32;4.00;;;1.67;;
32130;SDS011;18639;50.716;7.086;2023-11-21T00:12:57;9.80;;;2.15;;
32130;SDS011;18639;50.716;7.086;2023-11-21T00:15:22;3.20;;;1.88;;
32130;SDS011;18639;50.716;7.086;2023-11-21T00:17:48;3.90;;;2.20;;
32130;SDS011;18639;50.716;7.086;2023-11-21T00:20:13;6.53;;;1.70;;
32130;SDS011;18639;50.716;7.086;2023-11-21T00:22:38;2.90;;;1.30;;
32130;SDS011;18639;50.716;7.086;2023-11-21T00:25:05;2.67;;;1.40;;
32130;SDS011;18639;50.716;7.086;2023-11-21T00:27:31;4.97;;;1.98;;
32130;SDS011;18639;50.716;7.086;2023-11-21T00:29:56;3.47;;;1.70;;
32130;SDS011;18639;50.716;7.086;2023-11-21T00:32:21;4.47;;;1.90;;
32130;SDS011;18639;50.716;7.086;2023-11-21T00:34:47;4.80;;;1.70;;
32130;SDS011;18639;50.716;7.086;2023-11-21T00:37:12;4.07;;;1.90;;
32130;SDS011;18639;50.716;7.086;2023-11-21T00:39:37;4.05;;;1.90;;
32130;SDS011;18639;50.716;7.086;2023-11-21T00:42:03;3.70;;;2.08;;
32130;SDS011;18639;50.716;7.086;2023-11-21T00:44:29;4.43;;;1.98;;
32130;SDS011;18639;50.716;7.086;2023-11-21T00:46:55;4.90;;;1.67;;
32130;SDS011;18639;50.716;7.086;2023-11-21T00:49:20;4.47;;;1.98;;
32130;SDS011;18639;50.716;7.086;2023-11-21T00:51:45;3.63;;;1.70;;
32130;SDS011;18639;50.716;7.086;2023-11-21T00:54:11;6.80;;;2.00;;
32130;SDS011;18639;50.716;7.086;2023-11-21T00:56:36;4.07;;;1.90;;
32130;SDS011;18639;50.716;7.086;2023-11-21T00:59:02;3.60;;;1.70;;
32130;SDS011;18639;50.716;7.086;2023-11-21T01:01:29;3.85;;;2.03;;
32130;SDS011;18639;50.716;7.086;2023-11-21T01:03:55;4.43;;;1.88;;
32130;SDS011;18639;50.716;7.086;2023-11-21T01:06:20;5.97;;;2.22;;
32130;SDS011;18639;50.716;7.086;2023-11-21T01:08:45;4.05;;;1.58;;
32130;SDS011;18639;50.716;7.086;2023-11-21T01:11:11;7.47;;;2.17;;
32130;SDS011;18639;50.716;7.086;2023-11-21T01:13:37;4.05;;;2.22;;
32130;SDS011;18639;50.716;7.086;2023-11-21T01:16:04;4.80;;;1.77;;
32130;SDS011;18639;50.716;7.086;2023-11-21T01:18:31;3.95;;;2.30;;
32130;SDS011;18639;50.716;7.086;2023-11-21T01:20:56;5.18;;;2.28;;
32130;SDS011;18639;50.716;7.086;2023-11-21T01:23:22;6.10;;;2.35;;
32130;SDS011;18639;50.716;7.086;2023-11-21T01:25:47;4.30;;;1.92;;
32130;SDS011;18639;50.716;7.086;2023-11-21T01:28:13;5.75;;;2.20;;
32130;SDS011;18639;50.716;7.086;2023-11-21T01:30:38;5.43;;;2.13;;
32130;SDS011;18639;50.716;7.086;2023-11-21T01:33:04;5.40;;;1.98;;
32130;SDS011;18639;50.716;7.086;2023-11-21T01:35:29;3.85;;;1.83;;
32130;SDS011;18639;50.716;7.086;2023-11-21T01:37:55;3.65;;;2.17;;
32130;SDS011;18639;50.716;7.086;2023-11-21T01:40:20;13.02;;;2.50;;
32130;SDS011;18639;50.716;7.086;2023-11-21T01:42:46;10.32;;;2.95;;
32130;SDS011;18639;50.716;7.086;2023-11-21T01:45:12;4.90;;;2.33;;
32130;SDS011;18639;50.716;7.086;2023-11-21T01:47:38;5.78;;;2.60;;
32130;SDS011;18639;50.716;7.086;2023-11-21T01:50:06;6.43;;;2.47;;
32130;SDS011;18639;50.716;7.086;2023-11-21T01:52:33;9.20;;;2.92;;
32130;SDS011;18639;50.716;7.086;2023-11-21T01:55:00;5.35;;;2.30;;
32130;SDS011;18639;50.716;7.086;2023-11-21T01:57:25;4.78;;;2.40;;
32130;SDS011;18639;50.716;7.086;2023-11-21T01:59:51;12.88;;;2.92;;
32130;SDS011;18639;50.716;7.086;2023-11-21T02:02:19;7.22;;;2.85;;
32130;SDS011;18639;50.716;7.086;2023-11-21T02:04:44;6.00;;;2.65;;
32130;SDS011;18639;50.716;7.086;2023-11-21T02:07:10;6.65;;;2.63;;
32130;SDS011;18639;50.716;7.086;2023-11-21T02:09:35;9.23;;;2.50;;
32130;SDS011;18639;50.716;7.086;2023-11-21T02:12:03;6.78;;;2.40;;
32130;SDS011;18639;50.716;7.086;2023-11-21T02:14:29;7.75;;;2.92;;
32130;SDS011;18639;50.716;7.086;2023-11-21T02:16:55;6.13;;;2.42;;
32130;SDS011;18639;50.716;7.086;2023-11-21T02:19:22;10.35;;;3.25;;
32130;SDS011;18639;50.716;7.086;2023-11-21T02:21:50;7.47;;;2.92;;
32130;SDS011;18639;50.716;7.086;2023-11-21T02:24:22;6.50;;;2.63;;
32130;SDS011;18639;50.716;7.086;2023-11-21T02:26:48;5.35;;;1.98;;
32130;SDS011;18639;50.716;7.086;2023-11-21T02:29:18;3.92;;;2.25;;
32130;SDS011;18639;50.716;7.086;2023-11-21T02:31:47;5.13;;;2.22;;
32130;SDS011;18639;50.716;7.086;2023-11-21T02:34:17;6.05;;;2.03;;
32130;SDS011;18639;50.716;7.086;2023-11-21T02:36:43;4.22;;;1.92;;
32130;SDS011;18639;50.716;7.086;2023-11-21T02:39:09;3.30;;;1.65;;
32130;SDS011;18639;50.716;7.086;2023-11-21T02:41:36;5.30;;;2.10;;
32130;SDS011;18639;50.716;7.086;2023-11-21T02:44:04;3.38;;;1.98;;
32130;SDS011;18639;50.716;7.086;2023-11-21T02:46:31;4.68;;;2.05;;
32130;SDS011;18639;50.716;7.086;2023-11-21T02:48:57;4.60;;;1.90;;
32130;SDS011;18639;50.716;7.086;2023-11-21T02:51:23;6.15;;;2.20;;
32130;SDS011;18639;50.716;7.086;2023-11-21T02:53:48;8.02;;;2.13;;
32130;SDS011;18639;50.716;7.086;2023-11-21T02:56:15;5.63;;;2.20;;
32130;SDS011;18639;50.716;7.086;2023-11-21T02:58:41;6.90;;;2.33;;
32130;SDS011;18639;50.716;7.086;2023-11-21T03:01:08;5.22;;;2.30;;
32130;SDS011;18639;50.716;7.086;2023-11-21T03:03:33;7.60;;;3.22;;
32130;SDS011;18639;50.716;7.086;2023-11-21T03:05:58;5.05;;;2.40;;
32130;SDS011;18639;50.716;7.086;2023-11-21T03:08:24;9.00;;;2.90;;
32130;SDS011;18639;50.716;7.086;2023-11-21T03:10:49;6.10;;;2.75;;
32130;SDS011;18639;50.716;7.086;2023-11-21T03:13:14;6.95;;;2.83;;
32130;SDS011;18639;50.716;7.086;2023-11-21T03:15:39;7.90;;;3.15;;
32130;SDS011;18639;50.716;7.086;2023-11-21T03:18:05;8.57;;;3.38;;
32130;SDS011;18639;50.716;7.086;2023-11-21T03:20:30;11.77;;;3.90;;
32130;SDS011;18639;50.716;7.086;2023-11-21T03:22:55;8.23;;;3.67;;
32130;SDS011;18639;50.716;7.086;2023-11-21T03:25:21;9.43;;;4.07;;
32130;SDS011;18639;50.716;7.086;2023-11-21T03:27:48;9.52;;;3.50;;
32130;SDS011;18639;50.716;7.086;2023-11-21T03:30:14;13.13;;;4.15;;
32130;SDS011;18639;50.716;7.086;2023-11-21T03:32:40;9.25;;;3.83;;
32130;SDS011;18639;50.716;7.086;2023-11-21T03:35:05;10.05;;;4.15;;
32130;SDS011;18639;50.716;7.086;2023-11-21T03:37:31;9.32;;;4.43;;
32130;SDS011;18639;50.716;7.086;2023-11-21T03:39:56;10.30;;;3.80;;
32130;SDS011;18639;50.716;7.086;2023-11-21T03:42:21;14.95;;;4.50;;
32130;SDS011;18639;50.716;7.086;2023-11-21T03:44:46;9.82;;;4.38;;
32130;SDS011;18639;50.716;7.086;2023-11-21T03:47:12;9.70;;;3.90;;
32130;SDS011;18639;50.716;7.086;2023-11-21T03:49:37;9.63;;;3.72;;
32130;SDS011;18639;50.716;7.086;2023-11-21T03:52:03;11.35;;;4.18;;
32130;SDS011;18639;50.716;7.086;2023-11-21T03:54:29;11.35;;;4.35;;
32130;SDS011;18639;50.716;7.086;2023-11-21T03:56:54;11.32;;;4.30;;
32130;SDS011;18639;50.716;7.086;2023-11-21T03:59:19;10.63;;;4.10;;
32130;SDS011;18639;50.716;7.086;2023-11-21T04:01:44;10.32;;;3.83;;
32130;SDS011;18639;50.716;7.086;2023-11-21T04:04:09;10.70;;;4.03;;
32130;SDS011;18639;50.716;7.086;2023-11-21T04:06:35;13.82;;;4.80;;
32130;SDS011;18639;50.716;7.086;2023-11-21T04:09:02;11.52;;;4.03;;
32130;SDS011;18639;50.716;7.086;2023-11-21T04:11:29;13.02;;;4.22;;
32130;SDS011;18639;50.716;7.086;2023-11-21T04:13:54;15.63;;;4.45;;
32130;SDS011;18639;50.716;7.086;2023-11-21T04:16:20;10.10;;;3.90;;
32130;SDS011;18639;50.716;7.086;2023-11-21T04:18:45;14.13;;;4.30;;
32130;SDS011;18639;50.716;7.086;2023-11-21T04:21:10;11.50;;;4.43;;
32130;SDS011;18639;50.716;7.086;2023-11-21T04:23:35;12.95;;;4.43;;
32130;SDS011;18639;50.716;7.086;2023-11-21T04:26:01;13.35;;;4.45;;
32130;SDS011;18639;50.716;7.086;2023-11-21T04:28:27;11.57;;;4.07;;
32130;SDS011;18639;50.716;7.086;2023-11-21T04:30:52;15.40;;;4.63;;
32130;SDS011;18639;50.716;7.086;2023-11-21T04:33:18;11.35;;;4.40;;
32130;SDS011;18639;50.716;7.086;2023-11-21T04:35:43;6.72;;;3.53;;
32130;SDS011;18639;50.716;7.086;2023-11-21T04:38:08;10.93;;;4.53;;
32130;SDS011;18639;50.716;7.086;2023-11-21T04:40:34;9.45;;;3.78;;
32130;SDS011;18639;50.716;7.086;2023-11-21T04:42:59;11.40;;;3.10;;
32130;SDS011;18639;50.716;7.086;2023-11-21T04:45:25;9.70;;;4.05;;
32130;SDS011;18639;50.716;7.086;2023-11-21T04:47:50;12.32;;;4.13;;
32130;SDS011;18639;50.716;7.086;2023-11-21T04:50:15;10.13;;;3.78;;
32130;SDS011;18639;50.716;7.086;2023-11-21T04:52:41;9.05;;;3.40;;
32130;SDS011;18639;50.716;7.086;2023-11-21T04:55:06;15.10;;;3.72;;
32130;SDS011;18639;50.716;7.086;2023-11-21T04:57:35;9.20;;;3.75;;
32130;SDS011;18639;50.716;7.086;2023-11-21T05:00:00;8.60;;;3.60;;
32130;SDS011;18639;50.716;7.086;2023-11-21T05:02:25;13.75;;;3.88;;
32130;SDS011;18639;50.716;7.086;2023-11-21T05:04:51;11.10;;;4.22;;
32130;SDS011;18639;50.716;7.086;2023-11-21T05:07:16;8.55;;;3.33;;
32130;SDS011;18639;50.716;7.086;2023-11-21T05:09:44;12.65;;;4.18;;
32130;SDS011;18639;50.716;7.086;2023-11-21T05:12:11;7.80;;;3.38;;
32130;SDS011;18639;50.716;7.086;2023-11-21T05:14:37;8.95;;;3.70;;
32130;SDS011;18639;50.716;7.086;2023-11-21T05:17:02;11.98;;;4.28;;
32130;SDS011;18639;50.716;7.086;2023-11-21T05:19:29;9.30;;;3.65;;
32130;SDS011;18639;50.716;7.086;2023-11-21T05:21:54;9.70;;;3.72;;
32130;SDS011;18639;50.716;7.086;2023-11-21T05:24:19;8.25;;;3.72;;
32130;SDS011;18639;50.716;7.086;2023-11-21T05:26:45;10.88;;;3.47;;
32130;SDS011;18639;50.716;7.086;2023-11-21T05:29:10;8.82;;;4.13;;
32130;SDS011;18639;50.716;7.086;2023-11-21T05:31:36;13.77;;;4.13;;
32130;SDS011;18639;50.716;7.086;2023-11-21T05:34:01;8.30;;;3.53;;
32130;SDS011;18639;50.716;7.086;2023-11-21T05:36:27;10.38;;;3.63;;
32130;SDS011;18639;50.716;7.086;2023-11-21T05:38:52;9.60;;;3.28;;
32130;SDS011;18639;50.716;7.086;2023-11-21T05:41:18;14.15;;;4.22;;
32130;SDS011;18639;50.716;7.086;2023-11-21T05:43:43;9.13;;;2.92;;
32130;SDS011;18639;50.716;7.086;2023-11-21T05:46:08;9.13;;;3.97;;
32130;SDS011;18639;50.716;7.086;2023-11-21T05:51:56;9.23;;;3.13;;
32130;SDS011;18639;50.716;7.086;2023-11-21T05:54:21;9.10;;;3.08;;
32130;SDS011;18639;50.716;7.086;2023-11-21T05:56:47;12.05;;;3.30;;
32130;SDS011;18639;50.716;7.086;2023-11-21T05:59:13;5.15;;;2.67;;
32130;SDS011;18639;50.716;7.086;2023-11-21T06:01:39;7.82;;;3.13;;
32130;SDS011;18639;50.716;7.086;2023-11-21T06:04:05;8.20;;;3.13;;
32130;SDS011;18639;50.716;7.086;2023-11-21T06:09:52;9.38;;;2.90;;
32130;SDS011;18639;50.716;7.086;2023-11-21T06:12:17;11.48;;;3.78;;
32130;SDS011;18639;50.716;7.086;2023-11-21T06:17:32;8.32;;;3.28;;
32130;SDS011;18639;50.716;7.086;2023-11-21T06:20:01;9.25;;;3.15;;
32130;SDS011;18639;50.716;7.086;2023-11-21T06:22:28;11.68;;;4.10;;
32130;SDS011;18639;50.716;7.086;2023-11-21T06:24:55;8.75;;;3.03;;
32130;SDS011;18639;50.716;7.086;2023-11-21T06:27:20;12.65;;;3.15;;
32130;SDS011;18639;50.716;7.086;2023-11-21T06:29:46;13.25;;;3.30;;
32130;SDS011;18639;50.716;7.086;2023-11-21T06:32:12;10.82;;;3.30;;
32130;SDS011;18639;50.716;7.086;2023-11-21T06:34:37;10.68;;;3.58;;
32130;SDS011;18639;50.716;7.086;2023-11-21T06:37:03;7.95;;;3.33;;
32130;SDS011;18639;50.716;7.086;2023-11-21T06:39:28;10.25;;;3.38;;
32130;SDS011;18639;50.716;7.086;2023-11-21T06:41:53;9.07;;;3.13;;
32130;SDS011;18639;50.716;7.086;2023-11-21T06:44:19;9.73;;;3.22;;
32130;SDS011;18639;50.716;7.086;2023-11-21T06:46:44;9.55;;;3.35;;
32130;SDS011;18639;50.716;7.086;2023-11-21T06:49:10;9.63;;;2.88;;
32130;SDS011;18639;50.716;7.086;2023-11-21T06:51:36;9.10;;;3.38;;
32130;SDS011;18639;50.716;7.086;2023-11-21T06:54:01;12.88;;;4.25;;
32130;SDS011;18639;50.716;7.086;2023-11-21T06:56:26;10.50;;;3.80;;
32130;SDS011;18639;50.716;7.086;2023-11-21T06:58:51;13.13;;;3.53;;
32130;SDS011;18639;50.716;7.086;2023-11-21T07:01:20;7.70;;;3.40;;
32130;SDS011;18639;50.716;7.086;2023-11-21T07:03:45;9.57;;;3.38;;
32130;SDS011;18639;50.716;7.086;2023-11-21T07:06:11;13.93;;;3.58;;
32130;SDS011;18639;50.716;7.086;2023-11-21T07:08:36;9.80;;;3.13;;
32130;SDS011;18639;50.716;7.086;2023-11-21T07:11:02;6.72;;;2.80;;
32130;SDS011;18639;50.716;7.086;2023-11-21T07:13:28;10.63;;;3.08;;
32130;SDS011;18639;50.716;7.086;2023-11-21T07:15:53;11.48;;;3.42;;
32130;SDS011;18639;50.716;7.086;2023-11-21T07:18:19;7.63;;;3.05;;
32130;SDS011;18639;50.716;7.086;2023-11-21T07:20:44;15.48;;;3.30;;
32130;SDS011;18639;50.716;7.086;2023-11-21T07:23:09;4.93;;;2.78;;
32130;SDS011;18639;50.716;7.086;2023-11-21T07:25:35;13.13;;;3.08;;
32130;SDS011;18639;50.716;7.086;2023-11-21T07:28:01;9.63;;;3.63;;
32130;SDS011;18639;50.716;7.086;2023-11-21T07:30:26;13.32;;;3.78;;
32130;SDS011;18639;50.716;7.086;2023-11-21T07:32:52;9.38;;;3.42;;
32130;SDS011;18639;50.716;7.086;2023-11-21T07:35:17;10.18;;;2.92;;
32130;SDS011;18639;50.716;7.086;2023-11-21T07:37:43;14.27;;;3.85;;
32130;SDS011;18639;50.716;7.086;2023-11-21T07:40:08;11.90;;;3.45;;
32130;SDS011;18639;50.716;7.086;2023-11-21T07:42:35;9.57;;;3.10;;
32130;SDS011;18639;50.716;7.086;2023-11-21T07:45:00;8.45;;;3.30;;
32130;SDS011;18639;50.716;7.086;2023-11-21T07:47:27;9.65;;;2.85;;
32130;SDS011;18639;50.716;7.086;2023-11-21T07:49:53;5.72;;;2.42;;
32130;SDS011;18639;50.716;7.086;2023-11-21T07:52:20;12.75;;;3.20;;
32130;SDS011;18639;50.716;7.086;2023-11-21T07:54:46;11.90;;;3.03;;
32130;SDS011;18639;50.716;7.086;2023-11-21T07:57:11;13.18;;;3.53;;
32130;SDS011;18639;50.716;7.086;2023-11-21T07:59:38;13.73;;;3.25;;
32130;SDS011;18639;50.716;7.086;2023-11-21T08:02:04;7.75;;;3.38;;
32130;SDS011;18639;50.716;7.086;2023-11-21T08:04:29;9.50;;;3.35;;
32130;SDS011;18639;50.716;7.086;2023-11-21T08:06:54;12.45;;;3.78;;
32130;SDS011;18639;50.716;7.086;2023-11-21T08:09:20;8.00;;;2.75;;
32130;SDS011;18639;50.716;7.086;2023-11-21T08:11:48;7.70;;;3.00;;
32130;SDS011;18639;50.716;7.086;2023-11-21T08:14:14;11.95;;;3.53;;
32130;SDS011;18639;50.716;7.086;2023-11-21T08:16:40;10.85;;;3.40;;
32130;SDS011;18639;50.716;7.086;2023-11-21T08:19:05;9.52;;;2.80;;
32130;SDS011;18639;50.716;7.086;2023-11-21T08:21:31;12.27;;;3.45;;
32130;SDS011;18639;50.716;7.086;2023-11-21T08:23:56;9.95;;;3.05;;
32130;SDS011;18639;50.716;7.086;2023-11-21T08:26:22;11.27;;;3.53;;
32130;SDS011;18639;50.716;7.086;2023-11-21T08:28:47;10.27;;;2.53;;
32130;SDS011;18639;50.716;7.086;2023-11-21T08:31:13;11.77;;;2.70;;
32130;SDS011;18639;50.716;7.086;2023-11-21T08:33:38;9.55;;;3.15;;
32130;SDS011;18639;50.716;7.086;2023-11-21T08:36:10;9.15;;;3.47;;
32130;SDS011;18639;50.716;7.086;2023-11-21T08:38:37;9.73;;;3.25;;
32130;SDS011;18639;50.716;7.086;2023-11-21T08:41:06;10.63;;;3.60;;
32130;SDS011;18639;50.716;7.086;2023-11-21T08:43:36;9.52;;;3.30;;
32130;SDS011;18639;50.716;7.086;2023-11-21T08:46:04;10.00;;;3.10;;
32130;SDS011;18639;50.716;7.086;2023-11-21T08:48:34;12.18;;;3.63;;
32130;SDS011;18639;50.716;7.086;2023-11-21T08:51:01;13.85;;;3.70;;
32130;SDS011;18639;50.716;7.086;2023-11-21T08:53:26;8.30;;;2.75;;
32130;SDS011;18639;50.716;7.086;2023-11-21T08:55:51;9.10;;;3.53;;
32130;SDS011;18639;50.716;7.086;2023-11-21T08:58:18;10.45;;;3.30;;
32130;SDS011;18639;50.716;7.086;2023-11-21T09:00:44;13.25;;;3.45;;
32130;SDS011;18639;50.716;7.086;2023-11-21T09:03:11;9.75;;;3.78;;
32130;SDS011;18639;50.716;7.086;2023-11-21T09:05:40;10.02;;;3.70;;
32130;SDS011;18639;50.716;7.086;2023-11-21T09:08:05;11.27;;;3.38;;
32130;SDS011;18639;50.716;7.086;2023-11-21T09:10:31;11.60;;;3.67;;
32130;SDS011;18639;50.716;7.086;2023-11-21T09:12:57;8.63;;;3.50;;
32130;SDS011;18639;50.716;7.086;2023-11-21T09:15:23;10.80;;;4.13;;
32130;SDS011;18639;50.716;7.086;2023-11-21T09:17:50;12.68;;;4.25;;
32130;SDS011;18639;50.716;7.086;2023-11-21T09:20:15;10.68;;;3.22;;
32130;SDS011;18639;50.716;7.086;2023-11-21T09:22:41;10.30;;;4.22;;
32130;SDS011;18639;50.716;7.086;2023-11-21T09:25:06;16.27;;;4.65;;
32130;SDS011;18639;50.716;7.086;2023-11-21T09:27:33;13.77;;;4.53;;
32130;SDS011;18639;50.716;7.086;2023-11-21T09:29:59;13.38;;;4.95;;
32130;SDS011;18639;50.716;7.086;2023-11-21T09:32:24;12.27;;;4.28;;
32130;SDS011;18639;50.716;7.086;2023-11-21T09:34:49;15.02;;;3.85;;
32130;SDS011;18639;50.716;7.086;2023-11-21T09:37:15;14.70;;;4.50;;
32130;SDS011;18639;50.716;7.086;2023-11-21T09:39:41;13.40;;;3.95;;
32130;SDS011;18639;50.716;7.086;2023-11-21T09:44:35;12.73;;;4.68;;
32130;SDS011;18639;50.716;7.086;2023-11-21T09:47:09;18.55;;;4.13;;
32130;SDS011;18639;50.716;7.086;2023-11-21T09:49:39;13.90;;;3.80;;
32130;SDS011;18639;50.716;7.086;2023-11-21T09:52:05;14.88;;;4.15;;
32130;SDS011;18639;50.716;7.086;2023-11-21T09:54:34;13.23;;;4.32;;
32130;SDS011;18639;50.716;7.086;2023-11-21T09:57:00;12.45;;;4.55;;
32130;SDS011;18639;50.716;7.086;2023-11-21T09:59:28;11.82;;;4.13;;
32130;SDS011;18639;50.716;7.086;2023-11-21T10:01:55;9.60;;;3.50;;
32130;SDS011;18639;50.716;7.086;2023-11-21T10:04:23;11.23;;;4.13;;
32130;SDS011;18639;50.716;7.086;2023-11-21T10:06:48;12.50;;;4.75;;
32130;SDS011;18639;50.716;7.086;2023-11-21T10:09:15;12.52;;;4.15;;
32130;SDS011;18639;50.716;7.086;2023-11-21T10:11:41;15.95;;;4.93;;
32130;SDS011;18639;50.716;7.086;2023-11-21T10:14:08;13.90;;;5.18;;
32130;SDS011;18639;50.716;7.086;2023-11-21T10:16:37;11.48;;;4.07;;
32130;SDS011;18639;50.716;7.086;2023-11-21T10:19:04;13.80;;;5.25;;
32130;SDS011;18639;50.716;7.086;2023-11-21T10:21:31;12.88;;;4.55;;
32130;SDS011;18639;50.716;7.086;2023-11-21T10:23:58;16.95;;;4.30;;
32130;SDS011;18639;50.716;7.086;2023-11-21T10:26:23;15.07;;;4.78;;
32130;SDS011;18639;50.716;7.086;2023-11-21T10:28:57;18.13;;;5.20;;
32130;SDS011;18639;50.716;7.086;2023-11-21T10:31:23;15.60;;;4.85;;
32130;SDS011;18639;50.716;7.086;2023-11-21T10:33:51;12.48;;;4.20;;
32130;SDS011;18639;50.716;7.086;2023-11-21T10:36:26;15.75;;;4.18;;
32130;SDS011;18639;50.716;7.086;2023-11-21T10:38:53;16.75;;;4.28;;
32130;SDS011;18639;50.716;7.086;2023-11-21T10:41:19;9.75;;;3.95;;
32130;SDS011;18639;50.716;7.086;2023-11-21T10:43:45;12.85;;;4.35;;
32130;SDS011;18639;50.716;7.086;2023-11-21T10:46:10;14.38;;;4.20;;
32130;SDS011;18639;50.716;7.086;2023-11-21T10:48:35;18.30;;;4.70;;
32130;SDS011;18639;50.716;7.086;2023-11-21T10:51:06;16.52;;;5.70;;
32130;SDS011;18639;50.716;7.086;2023-11-21T10:53:32;17.92;;;4.60;;
32130;SDS011;18639;50.716;7.086;2023-11-21T10:56:01;14.23;;;4.13;;
32130;SDS011;18639;50.716;7.086;2023-11-21T10:58:30;18.77;;;4.78;;
32130;SDS011;18639;50.716;7.086;2023-11-21T11:00:57;13.50;;;4.10;;
32130;SDS011;18639;50.716;7.086;2023-11-21T11:03:23;10.70;;;3.70;;
32130;SDS011;18639;50.716;7.086;2023-11-21T11:05:49;10.30;;;3.13;;
32130;SDS011;18639;50.716;7.086;2023-11-21T11:08:16;9.82;;;3.45;;
32130;SDS011;18639;50.716;7.086;2023-11-21T11:10:44;14.35;;;3.72;;
32130;SDS011;18639;50.716;7.086;2023-11-21T11:13:12;8.35;;;3.70;;
32130;SDS011;18639;50.716;7.086;2023-11-21T11:15:40;13.27;;;3.33;;
32130;SDS011;18639;50.716;7.086;2023-11-21T11:18:05;11.45;;;3.63;;
32130;SDS011;18639;50.716;7.086;2023-11-21T11:20:35;11.45;;;3.38;;
32130;SDS011;18639;50.716;7.086;2023-11-21T11:23:08;11.80;;;3.80;;
32130;SDS011;18639;50.716;7.086;2023-11-21T11:26:02;14.18;;;3.72;;
32130;SDS011;18639;50.716;7.086;2023-11-21T11:34:36;12.13;;;3.78;;
32130;SDS011;18639;50.716;7.086;2023-11-21T11:37:09;15.70;;;4.63;;
32130;SDS011;18639;50.716;7.086;2023-11-21T11:39:38;10.25;;;3.92;;
32130;SDS011;18639;50.716;7.086;2023-11-21T11:42:11;18.92;;;3.70;;
32130;SDS011;18639;50.716;7.086;2023-11-21T11:47:23;15.23;;;4.47;;
32130;SDS011;18639;50.716;7.086;2023-11-21T11:55:19;13.20;;;4.72;;
32130;SDS011;18639;50.716;7.086;2023-11-21T11:57:47;17.23;;;4.93;;
32130;SDS011;18639;50.716;7.086;2023-11-21T12:02:54;17.48;;;4.60;;
32130;SDS011;18639;50.716;7.086;2023-11-21T12:05:25;12.40;;;5.03;;
32130;SDS011;18639;50.716;7.086;2023-11-21T12:07:56;15.50;;;4.90;;
32130;SDS011;18639;50.716;7.086;2023-11-21T12:10:23;15.75;;;4.88;;
32130;SDS011;18639;50.716;7.086;2023-11-21T12:13:00;11.85;;;4.07;;
32130;SDS011;18639;50.716;7.086;2023-11-21T12:15:27;13.10;;;4.22;;
32130;SDS011;18639;50.716;7.086;2023-11-21T12:17:56;14.18;;;5.05;;
32130;SDS011;18639;50.716;7.086;2023-11-21T12:20:23;16.83;;;5.53;;
32130;SDS011;18639;50.716;7.086;2023-11-21T12:22:50;14.30;;;4.05;;
32130;SDS011;18639;50.716;7.086;2023-11-21T12:25:24;14.05;;;5.50;;
32130;SDS011;18639;50.716;7.086;2023-11-21T12:27:59;16.40;;;3.63;;
32130;SDS011;18639;50.716;7.086;2023-11-21T12:30:26;14.73;;;4.75;;
32130;SDS011;18639;50.716;7.086;2023-11-21T12:32:55;18.15;;;4.75;;
32130;SDS011;18639;50.716;7.086;2023-11-21T12:35:24;14.15;;;4.28;;
32130;SDS011;18639;50.716;7.086;2023-11-21T12:37:54;9.13;;;3.75;;
32130;SDS011;18639;50.716;7.086;2023-11-21T12:40:22;13.15;;;4.28;;
32130;SDS011;18639;50.716;7.086;2023-11-21T12:42:48;13.50;;;3.97;;
32130;SDS011;18639;50.716;7.086;2023-11-21T12:45:21;9.45;;;3.78;;
32130;SDS011;18639;50.716;7.086;2023-11-21T12:47:50;7.28;;;3.95;;
32130;SDS011;18639;50.716;7.086;2023-11-21T12:50:20;11.75;;;4.53;;
32130;SDS011;18639;50.716;7.086;2023-11-21T12:52:53;15.90;;;4.10;;
32130;SDS011;18639;50.716;7.086;2023-11-21T12:55:19;15.40;;;3.78;;
32130;SDS011;18639;50.716;7.086;2023-11-21T12:57:53;12.70;;;4.55;;
32130;SDS011;18639;50.716;7.086;2023-11-21T13:00:20;14.73;;;4.38;;
32130;SDS011;18639;50.716;7.086;2023-11-21T13:02:53;15.27;;;4.47;;
32130;SDS011;18639;50.716;7.086;2023-11-21T13:07:55;16.40;;;4.78;;
32130;SDS011;18639;50.716;7.086;2023-11-21T13:10:27;19.17;;;4.78;;
32130;SDS011;18639;50.716;7.086;2023-11-21T13:12:56;11.30;;;3.72;;
32130;SDS011;18639;50.716;7.086;2023-11-21T13:15:26;15.10;;;3.83;;
32130;SDS011;18639;50.716;7.086;2023-11-21T13:17:52;14.88;;;3.97;;
32130;SDS011;18639;50.716;7.086;2023-11-21T13:20:18;12.90;;;4.70;;
32130;SDS011;18639;50.716;7.086;2023-11-21T13:22:49;9.00;;;4.18;;
32130;SDS011;18639;50.716;7.086;2023-11-21T13:25:16;9.88;;;3.92;;
32130;SDS011;18639;50.716;7.086;2023-11-21T13:27:44;14.98;;;4.07;;
32130;SDS011;18639;50.716;7.086;2023-11-21T13:30:11;12.50;;;4.35;;
32130;SDS011;18639;50.716;7.086;2023-11-21T13:32:40;12.15;;;4.20;;
32130;SDS011;18639;50.716;7.086;2023-11-21T13:35:06;12.07;;;4.13;;
32130;SDS011;18639;50.716;7.086;2023-11-21T13:37:39;16.52;;;4.50;;
32130;SDS011;18639;50.716;7.086;2023-11-21T13:40:05;15.40;;;4.13;;
32130;SDS011;18639;50.716;7.086;2023-11-21T13:42:39;15.20;;;4.72;;
32130;SDS011;18639;50.716;7.086;2023-11-21T13:45:06;15.32;;;3.90;;
32130;SDS011;18639;50.716;7.086;2023-11-21T13:47:31;14.50;;;4.03;;
32130;SDS011;18639;50.716;7.086;2023-11-21T13:49:58;10.77;;;3.88;;
32130;SDS011;18639;50.716;7.086;2023-11-21T13:52:25;14.07;;;3.75;;
32130;SDS011;18639;50.716;7.086;2023-11-21T13:54:52;13.55;;;4.15;;
32130;SDS011;18639;50.716;7.086;2023-11-21T13:57:18;14.18;;;4.50;;
32130;SDS011;18639;50.716;7.086;2023-11-21T13:59:45;13.60;;;3.47;;
32130;SDS011;18639;50.716;7.086;2023-11-21T14:02:10;20.30;;;4.45;;
32130;SDS011;18639;50.716;7.086;2023-11-21T14:04:43;12.82;;;4.07;;
32130;SDS011;18639;50.716;7.086;2023-11-21T14:07:19;16.08;;;4.40;;
32130;SDS011;18639;50.716;7.086;2023-11-21T14:10:00;10.68;;;3.25;;
32130;SDS011;18639;50.716;7.086;2023-11-21T14:12:26;10.57;;;3.45;;
32130;SDS011;18639;50.716;7.086;2023-11-21T14:14:53;13.85;;;4.05;;
32130;SDS011;18639;50.716;7.086;2023-11-21T14:17:19;13.77;;;4.68;;
32130;SDS011;18639;50.716;7.086;2023-11-21T14:19:47;11.82;;;4.20;;
32130;SDS011;18639;50.716;7.086;2023-11-21T14:22:14;10.07;;;3.97;;
32130;SDS011;18639;50.716;7.086;2023-11-21T14:24:39;11.77;;;3.63;;
32130;SDS011;18639;50.716;7.086;2023-11-21T14:27:11;9.80;;;3.83;;
32130;SDS011;18639;50.716;7.086;2023-11-21T14:29:37;18.27;;;4.38;;
32130;SDS011;18639;50.716;7.086;2023-11-21T14:32:04;12.38;;;3.53;;
32130;SDS011;18639;50.716;7.086;2023-11-21T14:34:30;11.07;;;4.05;;
32130;SDS011;18639;50.716;7.086;2023-11-21T14:36:56;11.32;;;3.65;;
32130;SDS011;18639;50.716;7.086;2023-11-21T14:39:22;10.45;;;3.80;;
32130;SDS011;18639;50.716;7.086;2023-11-21T14:41:52;12.38;;;3.65;;
32130;SDS011;18639;50.716;7.086;2023-11-21T14:44:20;14.45;;;3.80;;
32130;SDS011;18639;50.716;7.086;2023-11-21T14:46:49;9.88;;;3.25;;
32130;SDS011;18639;50.716;7.086;2023-11-21T14:49:16;9.88;;;3.65;;
32130;SDS011;18639;50.716;7.086;2023-11-21T14:51:48;13.80;;;3.83;;
32130;SDS011;18639;50.716;7.086;2023-11-21T14:54:25;10.15;;;3.33;;
32130;SDS011;18639;50.716;7.086;2023-11-21T14:57:09;11.82;;;3.78;;
32130;SDS011;18639;50.716;7.086;2023-11-21T14:59:43;13.73;;;3.60;;
32130;SDS011;18639;50.716;7.086;2023-11-21T15:02:12;12.32;;;4.10;;
32130;SDS011;18639;50.716;7.086;2023-11-21T15:04:45;15.05;;;4.25;;
32130;SDS011;18639;50.716;7.086;2023-11-21T15:07:10;9.07;;;3.30;;
32130;SDS011;18639;50.716;7.086;2023-11-21T15:09:36;11.52;;;3.38;;